Time;durP1;ratioP1;P1;durP2;ratioP2;P2;SDS_P1;SDS_P2;PMS_P1;PMS_P2;Temp;Humidity;BMP_temperature;BMP_pressure;BME280_temperature;BME280_humidity;BME280_pressure;Samples;Min_cycle;Max_cycle;Signal;HPM_P1;HPM_P2
2023/07/18 00:01:05;;;;;;;21.00;4.70;;;;;;;22.11;40.01;100614.35;109166;1272;21995;-78
2023/07/18 00:03:41;;;;;;;10.60;3.10;;;;;;;21.97;40.57;100616.36;109228;1272;23606;-78
2023/07/18 00:06:22;;;;;;;9.30;3.20;;;;;;;21.84;41.29;100617.24;109165;1272;21998;-76
2023/07/18 00:08:54;;;;;;;7.90;2.90;;;;;;;21.79;41.68;100619.76;109563;1265;21981;-78
2023/07/18 00:11:26;;;;;;;5.70;2.90;;;;;;;21.72;42.10;100621.44;109826;1265;21989;-79
2023/07/18 00:14:08;;;;;;;5.50;2.70;;;;;;;21.65;42.35;100632.27;110207;1260;24298;-77
2023/07/18 00:16:44;;;;;;;6.20;2.60;;;;;;;21.56;42.97;100647.33;110791;1256;23047;-78
2023/07/18 00:19:19;;;;;;;6.70;3.40;;;;;;;21.46;43.30;100664.21;110955;1256;23015;-78
2023/07/18 00:21:51;;;;;;;5.30;2.70;;;;;;;21.33;44.05;100669.96;110672;1260;23654;-78
2023/07/18 00:24:20;;;;;;;7.30;2.60;;;;;;;21.22;44.50;100678.61;110602;1260;22836;-80
2023/07/18 00:26:55;;;;;;;7.30;2.20;;;;;;;21.07;45.35;100669.81;110224;1264;21971;-77
2023/07/18 00:29:25;;;;;;;4.20;3.10;;;;;;;20.93;45.89;100662.77;110210;1265;22015;-77
2023/07/18 00:32:04;;;;;;;3.40;2.60;;;;;;;20.78;46.60;100648.20;109439;1271;21982;-78
2023/07/18 00:34:35;;;;;;;2.70;2.40;;;;;;;20.63;47.47;100639.17;109421;1271;22013;-77
2023/07/18 00:37:08;;;;;;;5.20;2.80;;;;;;;20.50;48.19;100636.05;109424;1271;21989;-78
2023/07/18 00:39:40;;;;;;;5.30;3.70;;;;;;;20.38;48.88;100614.19;109477;1267;22002;-78
2023/07/18 00:42:09;;;;;;;5.50;3.20;;;;;;;20.24;49.51;100600.70;109130;1273;23640;-78
2023/07/18 00:44:41;;;;;;;4.10;2.70;;;;;;;20.13;50.26;100601.92;109613;1268;21950;-77
2023/07/18 00:47:10;;;;;;;4.10;2.80;;;;;;;20.04;50.86;100606.44;109761;1267;22086;-78
2023/07/18 00:49:40;;;;;;;5.20;2.70;;;;;;;19.99;51.16;100606.44;109923;1261;22715;-78
2023/07/18 00:52:15;;;;;;;2.70;2.30;;;;;;;19.93;51.45;100603.55;110562;1261;22980;-77
2023/07/18 00:54:45;;;;;;;3.20;2.40;;;;;;;19.79;51.90;100594.08;110548;1261;23085;-78
2023/07/18 00:57:14;;;;;;;3.30;2.60;;;;;;;19.80;52.28;100600.98;110637;1261;21972;-77
2023/07/18 00:59:51;;;;;;;6.40;2.40;;;;;;;19.77;52.97;100591.64;110079;1263;23715;-78
2023/07/18 01:02:23;;;;;;;4.10;2.50;;;;;;;19.72;53.49;100575.06;109766;1268;21989;-78
2023/07/18 01:04:53;;;;;;;4.30;2.50;;;;;;;19.76;53.61;100582.35;109111;1273;22007;-80
2023/07/18 01:07:22;;;;;;;7.20;2.60;;;;;;;19.76;53.65;100580.80;108926;1276;22556;-77
2023/07/18 01:10:11;;;;;;;5.90;2.50;;;;;;;19.75;54.07;100587.70;108711;1281;21994;-78
2023/07/18 01:12:41;;;;;;;3.80;2.40;;;;;;;19.74;54.19;100597.46;108526;1285;21999;-78
2023/07/18 01:15:12;;;;;;;4.50;2.70;;;;;;;19.73;54.33;100599.50;108137;1291;22002;-80
2023/07/18 01:17:50;;;;;;;3.60;2.70;;;;;;;19.69;54.36;100597.81;108189;1285;22006;-78
2023/07/18 01:20:28;;;;;;;3.70;2.80;;;;;;;19.65;54.28;100594.92;108116;1285;22003;-78
2023/07/18 01:23:03;;;;;;;4.00;2.30;;;;;;;19.59;54.42;100597.54;108448;1282;22093;-78
2023/07/18 01:25:36;;;;;;;3.70;2.40;;;;;;;19.49;54.40;100612.46;108734;1277;23515;-80
2023/07/18 01:28:10;;;;;;;3.80;2.50;;;;;;;19.41;54.63;100616.55;108577;1281;21985;-78
2023/07/18 01:30:39;;;;;;;3.90;2.40;;;;;;;19.35;54.93;100612.80;108673;1277;21991;-78
2023/07/18 01:33:15;;;;;;;3.60;2.30;;;;;;;19.30;55.05;100621.23;109005;1273;22534;-79
2023/07/18 01:35:46;;;;;;;;;;;;;;;19.25;54.93;100625.66;109918;1268;21964;-78
2023/07/18 01:38:15;;;;;;;;;;;;;;;19.10;55.20;100622.98;109827;1268;23025;-78
2023/07/18 01:40:44;;;;;;;4.20;2.30;;;;;;;18.99;55.31;100614.94;109773;1269;21986;-78
2023/07/18 01:43:14;;;;;;;5.00;3.10;;;;;;;19.00;55.31;100587.53;109254;1272;21984;-77
2023/07/18 01:45:45;;;;;;;5.20;3.30;;;;;;;19.05;55.21;100585.73;109754;1265;22280;-78
2023/07/18 01:48:14;;;;;;;5.40;2.70;;;;;;;19.10;55.15;100582.44;110313;1263;21991;-77
2023/07/18 01:50:44;;;;;;;3.70;2.70;;;;;;;19.12;55.01;100574.54;109242;1268;21971;-78
2023/07/18 01:53:13;;;;;;;4.90;3.40;;;;;;;19.10;55.06;100558.39;109447;1271;22442;-77
2023/07/18 01:55:43;;;;;;;5.80;3.70;;;;;;;19.10;55.00;100555.09;109171;1275;23760;-77
2023/07/18 01:58:15;;;;;;;4.30;2.60;;;;;;;19.07;54.92;100565.67;109035;1274;23637;-79
2023/07/18 02:00:45;;;;;;;4.00;2.70;;;;;;;19.04;55.07;100588.80;109335;1271;23705;-77
2023/07/18 02:03:17;;;;;;;5.50;3.70;;;;;;;18.97;55.34;100599.54;109431;1268;22694;-78
2023/07/18 02:05:52;;;;;;;5.00;3.00;;;;;;;19.01;55.54;100636.66;109748;1268;21998;-78
2023/07/18 02:08:27;;;;;;;6.80;3.30;;;;;;;18.95;55.75;100633.86;109670;1264;24467;-80
2023/07/18 02:11:01;;;;;;;7.50;3.80;;;;;;;18.92;55.93;100640.23;110330;1257;22113;-79
2023/07/18 02:13:38;;;;;;;8.10;3.70;;;;;;;18.90;56.09;100643.91;110117;1260;21967;-78
2023/07/18 02:16:13;;;;;;;7.20;3.90;;;;;;;18.83;56.17;100642.11;110637;1260;23704;-78
2023/07/18 02:18:43;;;;;;;7.60;3.60;;;;;;;18.75;56.41;100644.36;109700;1261;23020;-78
2023/07/18 02:21:18;;;;;;;6.90;3.10;;;;;;;18.70;56.66;100651.03;109634;1265;22760;-76
2023/07/18 02:23:56;;;;;;;5.60;3.70;;;;;;;18.65;56.91;100650.01;109651;1265;22730;-78
2023/07/18 02:26:55;;;;;;;5.40;2.80;;;;;;;18.55;56.93;100649.06;109960;1265;22158;-76
2023/07/18 02:29:57;;;;;;;4.80;3.10;;;;;;;18.52;57.37;100655.91;109937;1265;21977;-78
2023/07/18 02:32:58;;;;;;;5.90;3.00;;;;;;;18.52;57.65;100656.27;110068;1267;22645;-77
2023/07/18 02:35:55;;;;;;;8.20;3.20;;;;;;;18.50;57.68;100661.17;109262;1270;21997;-77
2023/07/18 02:38:32;;;;;;;9.50;3.20;;;;;;;18.48;57.67;100664.64;109959;1268;21988;-79
2023/07/18 02:41:15;;;;;;;;;;;;;;;18.46;57.56;100674.15;109781;1269;22972;-77
2023/07/18 02:44:04;;;;;;;4.90;3.10;;;;;;;18.31;57.83;100682.52;110041;1268;23602;-77
2023/07/18 02:47:04;;;;;;;9.40;3.50;;;;;;;18.28;57.93;100687.66;109886;1268;22482;-78
2023/07/18 02:50:13;;;;;;;5.80;3.00;;;;;;;18.21;57.91;100681.06;109442;1271;22091;-77
2023/07/18 02:53:08;;;;;;;3.60;2.90;;;;;;;18.21;57.93;100684.91;109494;1268;23040;-76
2023/07/18 02:59:23;;;;;;;6.20;3.20;;;;;;;18.25;57.92;100692.96;110095;1266;21980;-77
2023/07/18 03:02:19;;;;;;;5.90;3.50;;;;;;;18.25;58.23;100696.10;109976;1267;23081;-79
2023/07/18 03:05:01;;;;;;;9.10;4.20;;;;;;;18.26;58.17;100699.56;109835;1266;22201;-77
2023/07/18 03:07:52;;;;;;;6.40;3.10;;;;;;;18.26;58.22;100707.69;109929;1262;23770;-76
2023/07/18 03:10:24;;;;;;;;;;;;;;;18.23;58.16;100718.79;110147;1261;21951;-77
2023/07/18 03:13:12;;;;;;;9.70;3.60;;;;;;;18.07;58.48;100719.77;109839;1268;21997;-77
2023/07/18 03:15:43;;;;;;;7.70;3.60;;;;;;;18.07;58.70;100719.11;109787;1268;23046;-77
2023/07/18 03:18:54;;;;;;;4.50;3.40;;;;;;;18.05;58.79;100723.63;109845;1267;23595;-78
2023/07/18 03:21:47;;;;;;;15.70;13.60;;;;;;;18.06;58.90;100722.14;109822;1268;22042;-77
2023/07/18 03:24:38;;;;;;;7.60;6.70;;;;;;;18.08;58.95;100722.19;109402;1268;24399;-77
2023/07/18 03:27:22;;;;;;;6.00;4.30;;;;;;;18.09;58.98;100719.70;109467;1273;22020;-79
2023/07/18 03:30:11;;;;;;;10.60;9.40;;;;;;;18.09;59.03;100722.30;109255;1265;21983;-77
2023/07/18 03:33:37;;;;;;;18.80;16.90;;;;;;;18.07;59.17;100726.70;110086;1265;24468;-78
2023/07/18 03:36:50;;;;;;;9.50;4.40;;;;;;;18.05;59.35;100731.92;110646;1260;21968;-77
2023/07/18 03:39:40;;;;;;;11.20;5.00;;;;;;;18.04;59.47;100738.83;110687;1260;21993;-80
2023/07/18 03:43:19;;;;;;;8.00;3.80;;;;;;;18.02;59.74;100745.70;110903;1255;21994;-77
2023/07/18 03:46:28;;;;;;;7.40;3.40;;;;;;;18.02;59.86;100756.23;110998;1255;22225;-77
2023/07/18 03:50:30;;;;;;;;;;;;;;;;;;;;;
2023/07/18 03:53:41;;;;;;;8.30;4.00;;;;;;;18.02;60.28;100766.30;110297;1261;22287;-78
2023/07/18 03:57:03;;;;;;;9.30;4.90;;;;;;;18.03;60.24;100767.79;109532;1272;21992;-77
2023/07/18 04:00:18;;;;;;;8.80;3.50;;;;;;;18.07;60.51;100773.66;109445;1272;22121;-77
2023/07/18 04:03:29;;;;;;;6.90;3.50;;;;;;;18.11;60.40;100778.70;109587;1272;22008;-79
2023/07/18 04:06:14;;;;;;;7.60;3.60;;;;;;;18.18;60.39;100779.34;109041;1277;22247;-78
2023/07/18 04:09:07;;;;;;;6.10;4.00;;;;;;;18.22;60.33;100780.33;109111;1276;23200;-78
2023/07/18 04:12:17;;;;;;;;;;;;;;;18.25;60.39;100787.17;108831;1277;22757;-77
2023/07/18 04:15:08;;;;;;;8.20;3.50;;;;;;;18.20;60.68;100789.82;108922;1276;22027;-79
2023/07/18 04:18:12;;;;;;;8.40;3.80;;;;;;;18.26;60.50;100792.59;109075;1276;22462;-79
2023/07/18 04:20:49;;;;;;;6.50;3.80;;;;;;;18.33;60.18;100793.19;109065;1276;23717;-77
2023/07/18 04:23:23;;;;;;;5.80;3.60;;;;;;;18.43;60.05;100798.19;109026;1273;24023;-77
2023/07/18 04:26:17;;;;;;;8.10;3.80;;;;;;;18.50;59.56;100804.11;109328;1268;21959;-78
2023/07/18 04:28:55;;;;;;;5.90;4.10;;;;;;;18.55;59.32;100808.35;109536;1271;22364;-78
2023/07/18 04:31:55;;;;;;;5.40;3.60;;;;;;;18.65;59.27;100810.75;109727;1271;23745;-78
2023/07/18 04:34:41;;;;;;;5.70;4.00;;;;;;;18.76;59.07;100816.73;109392;1270;22332;-78
2023/07/18 04:37:39;;;;;;;4.20;3.30;;;;;;;18.87;58.84;100820.44;109530;1270;22078;-77
2023/07/18 04:40:30;;;;;;;8.10;3.00;;;;;;;19.01;58.40;100822.54;109293;1273;21985;-77
2023/07/18 04:43:09;;;;;;;7.10;3.00;;;;;;;19.16;57.97;100823.30;109114;1276;22027;-79
2023/07/18 04:46:26;;;;;;;10.00;3.60;;;;;;;19.33;57.43;100825.71;108774;1278;22361;-78
2023/07/18 04:49:31;;;;;;;8.50;4.20;;;;;;;19.51;56.67;100827.48;108950;1273;23669;-76
2023/07/18 04:52:49;;;;;;;9.00;3.30;;;;;;;19.70;55.99;100831.00;109309;1272;23724;-79
2023/07/18 04:55:49;;;;;;;;;;;;;;;;;;;;;
2023/07/18 04:58:26;;;;;;;7.70;2.40;;;;;;;20.28;54.42;100839.15;109179;1273;22011;-78
2023/07/18 05:01:12;;;;;;;6.70;2.50;;;;;;;20.54;53.43;100840.86;108663;1279;22068;-76
2023/07/18 05:03:44;;;;;;;10.70;3.20;;;;;;;20.93;52.82;100845.48;108678;1275;23076;-78
2023/07/18 05:06:27;;;;;;;8.80;2.90;;;;;;;21.31;51.75;100847.80;108670;1276;23091;-77
2023/07/18 05:09:00;;;;;;;10.40;3.00;;;;;;;21.70;50.70;100843.10;109038;1276;22009;-76
2023/07/18 05:11:31;;;;;;;14.40;3.80;;;;;;;22.05;49.64;100846.76;109337;1269;22939;-77
2023/07/18 05:14:03;;;;;;;4.30;2.20;;;;;;;22.39;48.76;100847.98;109912;1264;23550;-76
2023/07/18 05:16:45;;;;;;;6.90;2.40;;;;;;;22.78;47.99;100850.36;109523;1268;23639;-78
2023/07/18 05:19:24;;;;;;;12.60;3.00;;;;;;;23.13;46.56;100852.73;109611;1265;21992;-76
2023/07/18 05:22:01;;;;;;;6.20;2.20;;;;;;;23.43;45.65;100850.20;109994;1267;21976;-77
2023/07/18 05:24:39;;;;;;;21.30;3.60;;;;;;;23.74;45.39;100854.34;109870;1265;22742;-76
2023/07/18 05:27:12;;;;;;;6.00;2.40;;;;;;;24.07;44.18;100860.42;109850;1265;21977;-77
2023/07/18 05:29:41;;;;;;;5.50;2.20;;;;;;;24.32;43.44;100860.73;110169;1265;22116;-77
2023/07/18 05:32:25;;;;;;;8.30;2.50;;;;;;;24.60;42.91;100859.04;109810;1265;21983;-78
2023/07/18 05:35:11;;;;;;;16.10;3.30;;;;;;;24.81;41.76;100861.95;110049;1262;23721;-77
2023/07/18 05:37:44;;;;;;;8.30;2.80;;;;;;;24.97;41.70;100856.63;110400;1261;23607;-76
2023/07/18 05:40:19;;;;;;;8.40;2.60;;;;;;;25.23;41.17;100870.42;110530;1260;21939;-77
2023/07/18 05:42:58;;;;;;;9.20;2.70;;;;;;;25.52;40.62;100875.69;110395;1264;23082;-79
2023/07/18 05:45:34;;;;;;;4.30;1.90;;;;;;;25.80;39.68;100876.42;110168;1265;22624;-81
2023/07/18 05:48:04;;;;;;;14.20;3.40;;;;;;;25.98;39.15;100872.61;110409;1262;22028;-81
2023/07/18 05:50:39;;;;;;;16.30;3.30;;;;;;;26.20;38.51;100870.56;110448;1265;21979;-81
2023/07/18 05:53:14;;;;;;;5.00;2.30;;;;;;;26.38;37.94;100872.73;109711;1271;23007;-80
2023/07/18 05:56:43;;;;;;;;;;;;;;;;;;;;;
2023/07/18 06:00:33;;;;;;;8.90;1.80;;;;;;;26.42;36.61;100874.63;109773;1271;21986;-81
2023/07/18 06:03:28;;;;;;;;;;;;;;;;;;;;;
2023/07/18 06:07:14;;;;;;;4.30;1.60;;;;;;;26.54;35.63;100875.02;110828;1263;21970;-81
2023/07/18 06:19:00;;;;;;;5.30;1.50;;;;;;;27.41;33.33;100875.69;107627;1300;22020;-81
2023/07/18 06:21:34;;;;;;;5.20;2.10;;;;;;;27.66;32.61;100882.52;107136;1299;22011;-81
2023/07/18 06:24:29;;;;;;;6.80;1.80;;;;;;;27.80;31.71;100878.90;107129;1299;22056;-81
2023/07/18 06:27:39;;;;;;;;;;;;;;;;;;;;;
2023/07/18 06:31:07;;;;;;;4.10;1.90;;;;;;;27.66;31.59;100881.05;106919;1303;22094;-78
2023/07/18 06:45:27;;;;;;;9.90;2.10;;;;;;;29.02;28.56;100885.00;108593;1279;548270;-80
2023/07/18 06:49:20;;;;;;;;;;;;;;;;;;;;;
2023/07/18 06:52:50;;;;;;;4.40;1.30;;;;;;;29.03;27.75;100889.33;108644;1286;23727;-80
2023/07/18 07:00:55;;;;;;;4.80;1.70;;;;;;;28.90;28.17;100886.81;108478;1289;22024;-78
2023/07/18 07:03:58;;;;;;;;;;;;;;;;;;;;;
2023/07/18 07:07:06;;;;;;;;;;;;;;;;;;;;;
2023/07/18 07:10:24;;;;;;;4.00;1.80;;;;;;;29.03;28.02;100888.03;107635;1298;21869;-78
2023/07/18 07:13:35;;;;;;;5.90;1.50;;;;;;;29.11;27.99;100887.90;107683;1298;22151;-77
2023/07/18 07:16:15;;;;;;;2.60;1.70;;;;;;;29.30;27.55;100890.02;107476;1299;23181;-82
2023/07/18 07:18:52;;;;;;;5.30;1.70;;;;;;;29.35;27.51;100892.80;107632;1299;22021;-81
2023/07/18 07:21:45;;;;;;;9.80;1.90;;;;;;;29.42;27.86;100889.27;107616;1299;23648;-85
2023/07/18 07:24:16;;;;;;;4.90;1.50;;;;;;;29.56;27.67;100886.45;108088;1289;21991;-83
2023/07/18 07:27:14;;;;;;;3.70;1.30;;;;;;;29.72;26.90;100894.06;108836;1284;22744;-82
2023/07/18 07:34:24;;;;;;;10.10;1.80;;;;;;;29.82;26.66;100889.50;108577;1287;22038;-83
2023/07/18 07:36:45;;;;;;;;;;;;;;;;;;;;;
2023/07/18 07:40:11;;;;;;;2.50;1.40;;;;;;;29.80;26.30;100882.58;108679;1276;23719;-82
2023/07/18 07:44:27;;;;;;;3.10;1.40;;;;;;;29.60;26.51;100878.09;109109;1277;21986;-83
2023/07/18 07:48:05;;;;;;;11.40;2.00;;;;;;;29.54;26.91;100880.20;108565;1288;23855;-83
2023/07/18 07:51:54;;;;;;;3.70;1.20;;;;;;;29.57;26.54;100878.65;107930;1296;23734;-82
2023/07/18 07:55:42;;;;;;;;;;;;;;;;;;;;;
2023/07/18 08:10:32;;;;;;;3.80;1.60;;;;;;;29.90;25.11;100886.02;108576;1285;548833;-81
2023/07/18 08:15:26;;;;;;;;;;;;;;;;;;;;;
2023/07/18 08:19:26;;;;;;;;;;;;;;;;;;;;;
2023/07/18 08:23:34;;;;;;;;;;;;;;;;;;;;;
2023/07/18 08:27:22;;;;;;;3.70;2.10;;;;;;;28.94;26.13;100874.45;108793;1287;21909;-84
2023/07/18 08:31:26;;;;;;;;;;;;;;;;;;;;;
2023/07/18 08:38:45;;;;;;;;;;;;;;;;;;;;;
2023/07/18 09:04:24;;;;;;;;;;;;;;;;;;;;;
2023/07/18 09:08:29;;;;;;;7.90;1.30;;;;;;;28.59;26.42;100840.60;112785;1245;21949;-84
2023/07/18 09:17:07;;;;;;;;;;;;;;;;;;;;;
2023/07/18 09:21:08;;;;;;;12.20;2.90;;;;;;;28.28;27.20;100831.15;110602;1266;23713;-82
2023/07/18 09:25:07;;;;;;;4.10;1.60;;;;;;;28.15;27.40;100830.39;109560;1271;23066;-87
2023/07/18 09:29:08;;;;;;;3.10;1.10;;;;;;;27.86;27.02;100828.59;110048;1268;22757;-82
2023/07/18 09:32:43;;;;;;;;;;;;;;;;;;;;;
2023/07/18 09:35:50;;;;;;;;;;;;;;;;;;;;;
2023/07/18 09:39:28;;;;;;;;;;;;;;;;;;;;;
2023/07/18 09:56:33;;;;;;;;;;;;;;;;;;;;;
2023/07/18 10:04:48;;;;;;;;;;;;;;;;;;;;;
2023/07/18 10:13:18;;;;;;;;;;;;;;;;;;;;;
2023/07/18 10:27:01;;;;;;;2.80;1.40;;;;;;;28.18;25.44;100794.20;108607;1282;547786;-83
2023/07/18 10:30:48;;;;;;;3.00;1.20;;;;;;;27.88;25.38;100785.73;105464;1271;5672697;-80
2023/07/18 10:33:32;;;;;;;3.40;1.20;;;;;;;27.52;26.32;100773.60;110342;1263;23039;-79
2023/07/18 10:37:04;;;;;;;2.40;1.00;;;;;;;27.50;26.44;100778.08;110954;1259;22365;-80
2023/07/18 10:41:03;;;;;;;3.90;1.40;;;;;;;27.35;26.12;100781.06;110534;1266;23695;-79
2023/07/18 10:44:21;;;;;;;2.40;1.00;;;;;;;27.09;26.62;100770.42;109160;1278;21988;-81
2023/07/18 10:47:26;;;;;;;;;;;;;;;;;;;;;
2023/07/18 10:50:09;;;;;;;4.50;1.40;;;;;;;26.86;26.80;100773.79;108833;1279;21987;-78
2023/07/18 10:52:46;;;;;;;2.80;1.30;;;;;;;26.66;27.21;100765.42;108697;1279;23221;-79
2023/07/18 10:55:17;;;;;;;3.60;1.50;;;;;;;26.57;27.45;100755.05;109079;1279;24982;-80
2023/07/18 10:58:08;;;;;;;4.10;1.20;;;;;;;26.45;27.53;100755.66;109147;1280;21961;-81
2023/07/18 11:01:03;;;;;;;2.80;1.30;;;;;;;26.46;27.30;100752.19;107964;1288;544183;-80
2023/07/18 11:03:37;;;;;;;6.30;1.30;;;;;;;26.22;27.83;100745.51;111112;1260;21969;-83
2023/07/18 11:06:39;;;;;;;4.60;1.50;;;;;;;26.14;28.09;100741.25;111063;1260;21987;-81
2023/07/18 11:09:38;;;;;;;4.20;1.70;;;;;;;26.18;28.38;100739.80;110990;1259;22038;-80
2023/07/18 11:12:34;;;;;;;2.50;1.10;;;;;;;26.28;28.27;100733.30;111124;1265;21977;-81
2023/07/18 11:15:25;;;;;;;2.40;1.50;;;;;;;26.40;28.28;100728.75;108220;1262;3322092;-79
2023/07/18 11:18:30;;;;;;;2.30;1.20;;;;;;;26.47;28.21;100726.61;110834;1262;21994;-82
2023/07/18 11:21:54;;;;;;;;;;;;;;;;;;;;;
2023/07/18 11:25:33;;;;;;;3.90;1.10;;;;;;;26.50;27.70;100724.23;110519;1268;21983;-84
2023/07/18 11:28:42;;;;;;;11.10;2.40;;;;;;;26.44;27.89;100719.59;109749;1272;23221;-80
2023/07/18 11:32:27;;;;;;;4.40;1.50;;;;;;;26.51;28.11;100713.36;109668;1272;23691;-79
2023/07/18 11:35:28;;;;;;;6.90;1.50;;;;;;;26.61;27.82;100709.77;108890;1283;22098;-79
2023/07/18 11:38:50;;;;;;;3.60;1.40;;;;;;;26.52;27.31;100704.31;108774;1283;22013;-81
2023/07/18 11:41:52;;;;;;;3.50;1.40;;;;;;;26.40;27.09;100706.63;108673;1285;21993;-80
2023/07/18 11:44:57;;;;;;;2.00;0.90;;;;;;;26.29;27.27;100703.45;109216;1277;21984;-80
2023/07/18 11:48:13;;;;;;;5.20;1.50;;;;;;;26.29;27.33;100700.08;109491;1272;21972;-82
2023/07/18 11:51:03;;;;;;;6.00;1.70;;;;;;;26.30;27.43;100696.00;109210;1277;23608;-79
2023/07/18 11:53:39;;;;;;;3.60;1.30;;;;;;;26.34;27.60;100690.23;109292;1273;22094;-79
2023/07/18 11:56:18;;;;;;;3.80;1.50;;;;;;;26.46;27.60;100689.20;109641;1272;22238;-81
2023/07/18 11:59:32;;;;;;;4.20;1.70;;;;;;;26.53;27.51;100686.64;109343;1273;21986;-80
2023/07/18 12:03:36;;;;;;;2.00;1.30;;;;;;;26.54;27.48;100685.59;108574;1284;23829;-78
2023/07/18 12:06:31;;;;;;;5.40;1.60;;;;;;;26.52;27.36;100681.85;108036;1292;22807;-78
2023/07/18 12:09:36;;;;;;;4.10;1.60;;;;;;;26.50;27.35;100681.01;107999;1288;23071;-79
2023/07/18 12:12:54;;;;;;;2.40;1.20;;;;;;;26.49;27.14;100673.97;108261;1286;24628;-81
2023/07/18 12:15:54;;;;;;;8.90;1.60;;;;;;;26.51;27.03;100669.33;108510;1286;21998;-81
2023/07/18 12:19:03;;;;;;;;;;;;;;;;;;;;;
2023/07/18 12:21:52;;;;;;;3.20;1.20;;;;;;;26.46;27.07;100672.80;109570;1273;23605;-81
2023/07/18 12:25:02;;;;;;;3.90;1.60;;;;;;;26.52;27.13;100668.47;109118;1276;22000;-80
2023/07/18 12:28:13;;;;;;;4.80;1.60;;;;;;;26.61;27.23;100672.22;108927;1282;22554;-81
2023/07/18 12:31:38;;;;;;;3.70;1.50;;;;;;;26.73;27.10;100666.80;109076;1278;21988;-80
2023/07/18 12:35:36;;;;;;;5.50;1.80;;;;;;;26.81;26.80;100658.63;109195;1280;22034;-82
2023/07/18 12:39:47;;;;;;;10.30;1.40;;;;;;;26.79;26.69;100651.36;108647;1285;24654;-81
2023/07/18 12:42:24;;;;;;;3.40;2.00;;;;;;;26.75;26.84;100650.11;108479;1283;23055;-81
2023/07/18 12:45:41;;;;;;;4.30;1.90;;;;;;;26.84;27.06;100650.25;108962;1282;22464;-81
2023/07/18 12:48:36;;;;;;;4.60;1.30;;;;;;;26.94;26.77;100646.27;108753;1286;23923;-81
2023/07/18 12:51:18;;;;;;;2.40;1.70;;;;;;;26.89;26.40;100632.34;108509;1288;21839;-81
2023/07/18 12:57:49;;;;;;;6.80;1.60;;;;;;;26.86;26.08;100639.38;108444;1289;22026;-81
2023/07/18 13:00:49;;;;;;;3.10;1.90;;;;;;;26.78;26.28;100635.00;108941;1279;22004;-79
2023/07/18 13:04:04;;;;;;;3.90;1.30;;;;;;;26.70;26.18;100632.11;109117;1280;22032;-80
2023/07/18 13:07:46;;;;;;;3.70;1.30;;;;;;;26.67;26.19;100629.88;109192;1280;22008;-80
2023/07/18 13:11:35;;;;;;;2.70;1.30;;;;;;;26.66;25.94;100632.61;108799;1284;22008;-80
2023/07/18 13:20:30;;;;;;;;;;;;;;;;;;;;;
2023/07/18 13:24:41;;;;;;;3.10;1.20;;;;;;;26.67;25.88;100599.21;108838;1285;22021;-80
2023/07/18 13:28:28;;;;;;;3.60;0.90;;;;;;;26.68;25.53;100595.20;108861;1283;21999;-82
2023/07/18 13:32:02;;;;;;;3.60;1.20;;;;;;;26.62;25.31;100592.90;108916;1282;22000;-81
2023/07/18 13:35:04;;;;;;;3.20;1.50;;;;;;;26.68;25.26;100587.85;108882;1282;22092;-83
2023/07/18 13:38:11;;;;;;;2.70;1.40;;;;;;;26.73;25.21;100576.30;108707;1287;21858;-80
2023/07/18 13:41:16;;;;;;;5.10;1.30;;;;;;;26.79;25.24;100574.23;108448;1285;24547;-80
2023/07/18 13:44:53;;;;;;;;;;;;;;;;;;;;;
2023/07/18 13:48:50;;;;;;;1.80;1.20;;;;;;;26.70;25.25;100563.56;108867;1282;21986;-80
2023/07/18 13:53:14;;;;;;;4.20;1.60;;;;;;;26.69;25.29;100566.00;108938;1282;22123;-81
2023/07/18 13:56:18;;;;;;;1.80;1.20;;;;;;;26.71;25.52;100560.75;109047;1278;21986;-80
2023/07/18 13:59:27;;;;;;;2.90;0.90;;;;;;;26.74;25.14;100557.39;109133;1278;22004;-79
2023/07/18 14:07:18;;;;;;;3.00;1.60;;;;;;;26.72;25.21;100573.38;109245;1278;22415;-79
2023/07/18 14:10:38;;;;;;;1.80;1.20;;;;;;;26.70;25.14;100575.17;109608;1274;22129;-80
2023/07/18 14:14:13;;;;;;;3.70;1.50;;;;;;;26.74;25.34;100576.34;109173;1280;22780;-79
2023/07/18 14:17:59;;;;;;;2.10;1.20;;;;;;;26.78;25.22;100579.54;109234;1280;21990;-82
2023/07/18 14:24:59;;;;;;;6.60;1.10;;;;;;;26.78;25.16;100574.86;108685;1284;22016;-81
2023/07/18 14:27:58;;;;;;;1.90;1.30;;;;;;;26.82;24.89;100561.62;108828;1284;23765;-82
2023/07/18 14:31:21;;;;;;;2.20;1.20;;;;;;;26.86;24.69;100557.07;108772;1279;22484;-81
2023/07/18 14:35:30;;;;;;;4.60;1.20;;;;;;;26.84;24.64;100545.17;108930;1283;22015;-81
2023/07/18 14:38:47;;;;;;;3.00;1.30;;;;;;;26.85;24.53;100539.29;109509;1275;21930;-81
2023/07/18 14:43:06;;;;;;;;;;;;;;;;;;;;;
2023/07/18 14:46:57;;;;;;;3.10;1.20;;;;;;;26.69;24.26;100532.02;109700;1275;21814;-84
2023/07/18 14:50:43;;;;;;;2.80;1.20;;;;;;;26.61;24.30;100538.57;109448;1275;22122;-82
2023/07/18 14:54:05;;;;;;;3.50;1.20;;;;;;;26.62;24.33;100541.12;109778;1275;23093;-86
2023/07/18 14:57:41;;;;;;;6.90;4.20;;;;;;;26.55;24.19;100530.44;109170;1282;22062;-82
2023/07/18 15:00:32;;;;;;;2.80;1.20;;;;;;;26.54;24.60;100513.59;108795;1283;22291;-80
2023/07/18 15:03:15;;;;;;;3.40;1.50;;;;;;;26.66;24.48;100514.52;108741;1283;22007;-82
2023/07/18 15:06:00;;;;;;;2.60;1.20;;;;;;;26.70;24.48;100522.33;108612;1283;22054;-80
2023/07/18 15:19:53;;;;;;;2.50;1.40;;;;;;;27.72;22.80;100521.17;108444;1286;548293;-82
2023/07/18 15:22:31;;;;;;;2.30;1.00;;;;;;;27.76;22.62;100525.48;106332;1267;5407377;-78
2023/07/18 15:25:57;;;;;;;5.60;1.30;;;;;;;27.37;23.16;100522.13;110528;1263;22038;-83
2023/07/18 15:28:51;;;;;;;3.60;1.20;;;;;;;27.21;23.74;100522.39;110515;1263;23044;-77
2023/07/18 15:31:33;;;;;;;2.70;1.20;;;;;;;27.21;24.09;100520.02;109968;1268;23016;-81
2023/07/18 15:34:16;;;;;;;8.40;1.60;;;;;;;27.23;24.15;100523.45;110321;1268;21983;-83
2023/07/18 15:36:47;;;;;;;2.70;1.10;;;;;;;27.19;24.18;100519.17;109764;1268;23740;-80
2023/07/18 15:39:53;;;;;;;4.50;1.50;;;;;;;27.06;24.16;100517.17;109703;1268;21979;-82
2023/07/18 15:42:22;;;;;;;3.70;1.30;;;;;;;26.96;24.32;100516.95;109933;1267;21979;-78
2023/07/18 15:45:08;;;;;;;4.00;1.30;;;;;;;26.90;24.38;100513.46;110191;1267;21988;-76
2023/07/18 15:48:18;;;;;;;4.80;3.50;;;;;;;26.84;24.49;100515.65;109799;1268;23644;-81
2023/07/18 15:51:02;;;;;;;3.70;1.40;;;;;;;26.83;24.63;100513.77;110493;1263;22440;-77
2023/07/18 15:53:50;;;;;;;4.50;1.40;;;;;;;26.86;24.62;100509.73;110303;1263;21971;-79
2023/07/18 15:57:05;;;;;;;2.30;1.30;;;;;;;26.82;24.72;100507.17;110930;1258;22037;-75
2023/07/18 16:00:03;;;;;;;2.10;1.30;;;;;;;26.75;24.65;100503.79;111008;1256;22200;-78
2023/07/18 16:02:50;;;;;;;2.40;1.10;;;;;;;26.72;24.56;100495.70;111099;1256;23032;-78
2023/07/18 16:05:30;;;;;;;3.00;1.30;;;;;;;26.72;24.45;100494.29;110828;1256;21988;-77
2023/07/18 16:08:07;;;;;;;3.00;1.00;;;;;;;26.70;24.37;100491.45;110977;1256;21983;-77
2023/07/18 16:11:30;;;;;;;2.00;1.10;;;;;;;26.67;24.35;100488.35;110680;1262;21950;-74
2023/07/18 16:14:40;;;;;;;3.20;1.60;;;;;;;26.61;24.54;100479.91;110397;1261;23013;-75
2023/07/18 16:17:28;;;;;;;1.50;1.00;;;;;;;26.64;24.50;100478.73;110530;1261;21981;-78
2023/07/18 16:20:10;;;;;;;4.20;1.80;;;;;;;26.63;24.49;100474.10;110101;1262;23687;-78
2023/07/18 16:22:57;;;;;;;;;;;;;;;26.61;24.51;100471.10;110686;1261;23033;-77
2023/07/18 16:26:18;;;;;;;3.70;1.20;;;;;;;26.52;24.55;100461.87;110624;1261;22453;-78
2023/07/18 16:29:41;;;;;;;2.10;1.40;;;;;;;26.48;24.74;100459.52;110548;1260;21976;-80
2023/07/18 16:33:02;;;;;;;5.50;4.80;;;;;;;26.53;24.81;100458.52;110698;1260;22963;-77
2023/07/18 16:35:52;;;;;;;2.50;1.40;;;;;;;26.51;24.75;100456.45;110418;1260;21966;-78
2023/07/18 16:38:52;;;;;;;;;;;;;;;;;;;;;
2023/07/18 16:42:16;;;;;;;3.60;1.20;;;;;;;26.30;24.74;100447.02;110786;1261;22297;-76
2023/07/18 16:45:27;;;;;;;1.60;1.20;;;;;;;26.20;24.87;100442.36;110937;1260;21976;-79
2023/07/18 16:48:14;;;;;;;4.00;1.70;;;;;;;26.17;25.11;100437.29;110673;1261;22270;-75
2023/07/18 16:51:11;;;;;;;3.60;1.20;;;;;;;26.14;25.12;100428.88;110622;1254;23625;-76
2023/07/18 16:53:54;;;;;;;2.70;1.20;;;;;;;26.09;25.22;100428.45;110530;1261;21969;-78
2023/07/18 16:56:40;;;;;;;6.30;2.00;;;;;;;26.08;25.35;100422.65;110372;1267;22725;-76
2023/07/18 16:59:39;;;;;;;;;;;;;;;;;;;;;